sensor_id;sensor_type;location;lat;lon;timestamp;P1;durP1;ratioP1;P2;durP2;ratioP2
66112;SDS011;52893;52.870;5.822;2023-05-07T00:02:22;31.70;;;16.70;;
66112;SDS011;52893;52.870;5.822;2023-05-07T00:04:49;28.58;;;17.20;;
66112;SDS011;52893;52.870;5.822;2023-05-07T00:07:17;31.33;;;17.48;;
66112;SDS011;52893;52.870;5.822;2023-05-07T00:09:45;27.98;;;17.85;;
66112;SDS011;52893;52.870;5.822;2023-05-07T00:12:13;25.65;;;15.77;;
66112;SDS011;52893;52.870;5.822;2023-05-07T00:14:41;26.55;;;15.60;;
66112;SDS011;52893;52.870;5.822;2023-05-07T00:17:08;23.35;;;13.20;;
66112;SDS011;52893;52.870;5.822;2023-05-07T00:19:35;29.05;;;17.05;;
66112;SDS011;52893;52.870;5.822;2023-05-07T00:22:02;27.05;;;17.77;;
66112;SDS011;52893;52.870;5.822;2023-05-07T00:24:30;28.23;;;17.42;;
66112;SDS011;52893;52.870;5.822;2023-05-07T00:26:57;28.95;;;17.33;;
66112;SDS011;52893;52.870;5.822;2023-05-07T00:29:26;30.52;;;18.23;;
66112;SDS011;52893;52.870;5.822;2023-05-07T00:31:53;27.45;;;17.67;;
66112;SDS011;52893;52.870;5.822;2023-05-07T00:34:20;25.35;;;15.48;;
66112;SDS011;52893;52.870;5.822;2023-05-07T00:36:48;25.55;;;16.23;;
66112;SDS011;52893;52.870;5.822;2023-05-07T00:39:15;28.30;;;16.83;;
66112;SDS011;52893;52.870;5.822;2023-05-07T00:41:43;25.58;;;17.45;;
66112;SDS011;52893;52.870;5.822;2023-05-07T00:44:11;28.58;;;18.23;;
66112;SDS011;52893;52.870;5.822;2023-05-07T00:46:40;25.17;;;16.60;;
66112;SDS011;52893;52.870;5.822;2023-05-07T00:49:07;24.85;;;17.35;;
66112;SDS011;52893;52.870;5.822;2023-05-07T00:51:35;32.85;;;19.17;;
66112;SDS011;52893;52.870;5.822;2023-05-07T00:54:02;26.15;;;16.90;;
66112;SDS011;52893;52.870;5.822;2023-05-07T00:56:30;31.38;;;17.55;;
66112;SDS011;52893;52.870;5.822;2023-05-07T00:58:58;27.23;;;16.75;;
66112;SDS011;52893;52.870;5.822;2023-05-07T01:01:27;27.33;;;17.63;;
66112;SDS011;52893;52.870;5.822;2023-05-07T01:03:55;30.00;;;17.33;;
66112;SDS011;52893;52.870;5.822;2023-05-07T01:06:23;28.75;;;16.20;;
66112;SDS011;52893;52.870;5.822;2023-05-07T01:08:53;30.38;;;18.27;;
66112;SDS011;52893;52.870;5.822;2023-05-07T01:11:22;27.92;;;18.02;;
66112;SDS011;52893;52.870;5.822;2023-05-07T01:13:51;27.13;;;18.13;;
66112;SDS011;52893;52.870;5.822;2023-05-07T01:16:18;26.58;;;14.65;;
66112;SDS011;52893;52.870;5.822;2023-05-07T01:18:46;28.00;;;16.77;;
66112;SDS011;52893;52.870;5.822;2023-05-07T01:21:16;23.13;;;15.30;;
66112;SDS011;52893;52.870;5.822;2023-05-07T01:23:46;25.85;;;16.83;;
66112;SDS011;52893;52.870;5.822;2023-05-07T01:26:14;24.70;;;16.15;;
66112;SDS011;52893;52.870;5.822;2023-05-07T01:28:44;30.40;;;17.77;;
66112;SDS011;52893;52.870;5.822;2023-05-07T01:31:12;27.42;;;15.75;;
66112;SDS011;52893;52.870;5.822;2023-05-07T01:33:40;22.55;;;14.85;;
66112;SDS011;52893;52.870;5.822;2023-05-07T01:36:09;25.17;;;15.45;;
66112;SDS011;52893;52.870;5.822;2023-05-07T01:38:38;25.85;;;15.95;;
66112;SDS011;52893;52.870;5.822;2023-05-07T01:41:08;26.98;;;16.60;;
66112;SDS011;52893;52.870;5.822;2023-05-07T01:43:36;30.35;;;16.33;;
66112;SDS011;52893;52.870;5.822;2023-05-07T01:46:03;25.98;;;16.85;;
66112;SDS011;52893;52.870;5.822;2023-05-07T01:48:31;22.02;;;13.93;;
66112;SDS011;52893;52.870;5.822;2023-05-07T01:50:59;25.85;;;17.02;;
66112;SDS011;52893;52.870;5.822;2023-05-07T01:53:27;30.95;;;19.40;;
66112;SDS011;52893;52.870;5.822;2023-05-07T01:55:55;31.85;;;19.48;;
66112;SDS011;52893;52.870;5.822;2023-05-07T01:58:25;33.88;;;20.50;;
66112;SDS011;52893;52.870;5.822;2023-05-07T02:00:52;30.13;;;18.60;;
66112;SDS011;52893;52.870;5.822;2023-05-07T02:03:19;34.22;;;18.23;;
66112;SDS011;52893;52.870;5.822;2023-05-07T02:05:56;32.45;;;18.63;;
66112;SDS011;52893;52.870;5.822;2023-05-07T02:08:38;35.23;;;18.60;;
66112;SDS011;52893;52.870;5.822;2023-05-07T02:11:05;38.72;;;18.30;;
66112;SDS011;52893;52.870;5.822;2023-05-07T02:13:35;32.88;;;17.70;;
66112;SDS011;52893;52.870;5.822;2023-05-07T02:16:03;22.95;;;13.65;;
66112;SDS011;52893;52.870;5.822;2023-05-07T02:18:31;31.33;;;17.80;;
66112;SDS011;52893;52.870;5.822;2023-05-07T02:20:59;19.45;;;10.82;;
66112;SDS011;52893;52.870;5.822;2023-05-07T02:23:26;32.95;;;18.25;;
66112;SDS011;52893;52.870;5.822;2023-05-07T02:25:54;26.23;;;15.63;;
66112;SDS011;52893;52.870;5.822;2023-05-07T02:28:21;30.95;;;17.02;;
66112;SDS011;52893;52.870;5.822;2023-05-07T02:30:54;28.63;;;15.40;;
66112;SDS011;52893;52.870;5.822;2023-05-07T02:33:24;18.13;;;11.27;;
66112;SDS011;52893;52.870;5.822;2023-05-07T02:35:52;26.80;;;14.95;;
66112;SDS011;52893;52.870;5.822;2023-05-07T02:38:20;25.00;;;13.52;;
66112;SDS011;52893;52.870;5.822;2023-05-07T02:40:47;23.20;;;13.65;;
66112;SDS011;52893;52.870;5.822;2023-05-07T02:43:15;21.95;;;10.65;;
66112;SDS011;52893;52.870;5.822;2023-05-07T02:45:46;22.60;;;13.77;;
66112;SDS011;52893;52.870;5.822;2023-05-07T02:48:16;20.10;;;12.68;;
66112;SDS011;52893;52.870;5.822;2023-05-07T02:50:43;25.85;;;15.98;;
66112;SDS011;52893;52.870;5.822;2023-05-07T02:53:12;28.27;;;13.43;;
66112;SDS011;52893;52.870;5.822;2023-05-07T02:55:40;28.83;;;12.98;;
66112;SDS011;52893;52.870;5.822;2023-05-07T02:58:07;25.05;;;13.90;;
66112;SDS011;52893;52.870;5.822;2023-05-07T03:00:36;24.52;;;13.55;;
66112;SDS011;52893;52.870;5.822;2023-05-07T03:03:14;26.70;;;14.25;;
66112;SDS011;52893;52.870;5.822;2023-05-07T03:05:42;20.52;;;12.75;;
66112;SDS011;52893;52.870;5.822;2023-05-07T03:08:10;24.83;;;13.77;;
66112;SDS011;52893;52.870;5.822;2023-05-07T03:10:37;22.27;;;12.32;;
66112;SDS011;52893;52.870;5.822;2023-05-07T03:13:04;25.25;;;15.18;;
66112;SDS011;52893;52.870;5.822;2023-05-07T03:15:32;21.42;;;14.02;;
66112;SDS011;52893;52.870;5.822;2023-05-07T03:17:59;25.80;;;14.93;;
66112;SDS011;52893;52.870;5.822;2023-05-07T03:20:27;30.15;;;15.60;;
66112;SDS011;52893;52.870;5.822;2023-05-07T03:22:56;24.55;;;12.35;;
66112;SDS011;52893;52.870;5.822;2023-05-07T03:25:23;25.05;;;12.88;;
66112;SDS011;52893;52.870;5.822;2023-05-07T03:27:51;29.50;;;15.35;;
66112;SDS011;52893;52.870;5.822;2023-05-07T03:30:22;27.35;;;16.30;;
66112;SDS011;52893;52.870;5.822;2023-05-07T03:32:50;30.92;;;17.20;;
66112;SDS011;52893;52.870;5.822;2023-05-07T03:35:17;24.88;;;16.90;;
66112;SDS011;52893;52.870;5.822;2023-05-07T03:37:46;22.75;;;14.57;;
66112;SDS011;52893;52.870;5.822;2023-05-07T03:40:14;28.05;;;15.98;;
66112;SDS011;52893;52.870;5.822;2023-05-07T03:42:46;28.65;;;17.45;;
66112;SDS011;52893;52.870;5.822;2023-05-07T03:45:14;25.13;;;16.40;;
66112;SDS011;52893;52.870;5.822;2023-05-07T03:47:46;26.15;;;17.45;;
66112;SDS011;52893;52.870;5.822;2023-05-07T03:50:17;34.90;;;18.10;;
66112;SDS011;52893;52.870;5.822;2023-05-07T03:52:44;28.05;;;14.88;;
66112;SDS011;52893;52.870;5.822;2023-05-07T03:55:15;32.30;;;17.52;;
66112;SDS011;52893;52.870;5.822;2023-05-07T03:57:48;27.25;;;15.77;;
66112;SDS011;52893;52.870;5.822;2023-05-07T04:00:16;26.60;;;16.63;;
66112;SDS011;52893;52.870;5.822;2023-05-07T04:02:49;29.70;;;17.77;;
66112;SDS011;52893;52.870;5.822;2023-05-07T04:05:23;25.60;;;15.70;;
66112;SDS011;52893;52.870;5.822;2023-05-07T04:07:55;26.98;;;15.65;;
66112;SDS011;52893;52.870;5.822;2023-05-07T04:10:30;29.65;;;17.42;;
66112;SDS011;52893;52.870;5.822;2023-05-07T04:15:28;32.70;;;15.57;;
66112;SDS011;52893;52.870;5.822;2023-05-07T04:17:56;32.15;;;18.98;;
66112;SDS011;52893;52.870;5.822;2023-05-07T04:20:24;27.85;;;17.50;;
66112;SDS011;52893;52.870;5.822;2023-05-07T04:22:58;27.73;;;13.48;;
66112;SDS011;52893;52.870;5.822;2023-05-07T04:25:26;27.88;;;15.43;;
66112;SDS011;52893;52.870;5.822;2023-05-07T04:28:00;32.90;;;19.42;;
66112;SDS011;52893;52.870;5.822;2023-05-07T04:30:28;27.10;;;15.98;;
66112;SDS011;52893;52.870;5.822;2023-05-07T04:32:56;30.40;;;16.45;;
66112;SDS011;52893;52.870;5.822;2023-05-07T04:35:26;35.90;;;18.23;;
66112;SDS011;52893;52.870;5.822;2023-05-07T04:37:53;30.38;;;17.85;;
66112;SDS011;52893;52.870;5.822;2023-05-07T04:40:21;33.88;;;18.85;;
66112;SDS011;52893;52.870;5.822;2023-05-07T04:42:48;36.65;;;19.02;;
66112;SDS011;52893;52.870;5.822;2023-05-07T04:45:17;31.95;;;16.33;;
66112;SDS011;52893;52.870;5.822;2023-05-07T04:47:46;32.13;;;17.95;;
66112;SDS011;52893;52.870;5.822;2023-05-07T04:50:13;29.58;;;17.55;;
66112;SDS011;52893;52.870;5.822;2023-05-07T04:52:42;33.08;;;18.23;;
66112;SDS011;52893;52.870;5.822;2023-05-07T04:55:09;27.23;;;15.82;;
66112;SDS011;52893;52.870;5.822;2023-05-07T04:57:39;36.70;;;20.52;;
66112;SDS011;52893;52.870;5.822;2023-05-07T05:00:08;36.60;;;21.20;;
66112;SDS011;52893;52.870;5.822;2023-05-07T05:02:39;39.10;;;19.08;;
66112;SDS011;52893;52.870;5.822;2023-05-07T05:05:07;37.05;;;19.77;;
66112;SDS011;52893;52.870;5.822;2023-05-07T05:07:35;35.30;;;19.30;;
66112;SDS011;52893;52.870;5.822;2023-05-07T05:10:02;36.10;;;20.05;;
66112;SDS011;52893;52.870;5.822;2023-05-07T05:12:34;39.73;;;21.17;;
66112;SDS011;52893;52.870;5.822;2023-05-07T05:15:02;34.50;;;19.83;;
66112;SDS011;52893;52.870;5.822;2023-05-07T05:17:30;37.92;;;19.83;;
66112;SDS011;52893;52.870;5.822;2023-05-07T05:19:59;35.25;;;19.50;;
66112;SDS011;52893;52.870;5.822;2023-05-07T05:22:26;37.45;;;20.77;;
66112;SDS011;52893;52.870;5.822;2023-05-07T05:24:56;41.25;;;21.17;;
66112;SDS011;52893;52.870;5.822;2023-05-07T05:27:23;31.52;;;16.88;;
66112;SDS011;52893;52.870;5.822;2023-05-07T05:29:51;40.22;;;22.38;;
66112;SDS011;52893;52.870;5.822;2023-05-07T05:32:18;36.20;;;20.05;;
66112;SDS011;52893;52.870;5.822;2023-05-07T05:34:45;48.60;;;24.23;;
66112;SDS011;52893;52.870;5.822;2023-05-07T05:37:14;41.03;;;23.13;;
66112;SDS011;52893;52.870;5.822;2023-05-07T05:39:42;32.20;;;16.15;;
66112;SDS011;52893;52.870;5.822;2023-05-07T05:42:10;38.33;;;20.30;;
66112;SDS011;52893;52.870;5.822;2023-05-07T05:44:37;38.08;;;22.33;;
66112;SDS011;52893;52.870;5.822;2023-05-07T05:47:04;41.13;;;21.88;;
66112;SDS011;52893;52.870;5.822;2023-05-07T05:49:32;40.80;;;22.30;;
66112;SDS011;52893;52.870;5.822;2023-05-07T05:52:00;40.22;;;22.77;;
66112;SDS011;52893;52.870;5.822;2023-05-07T05:54:29;40.15;;;21.92;;
66112;SDS011;52893;52.870;5.822;2023-05-07T05:56:57;39.53;;;19.45;;
66112;SDS011;52893;52.870;5.822;2023-05-07T05:59:25;49.08;;;25.05;;
66112;SDS011;52893;52.870;5.822;2023-05-07T06:01:53;41.92;;;22.27;;
66112;SDS011;52893;52.870;5.822;2023-05-07T06:04:21;42.08;;;23.38;;
66112;SDS011;52893;52.870;5.822;2023-05-07T06:06:48;48.50;;;24.33;;
66112;SDS011;52893;52.870;5.822;2023-05-07T06:09:16;33.78;;;19.00;;
66112;SDS011;52893;52.870;5.822;2023-05-07T06:11:45;37.60;;;21.73;;
66112;SDS011;52893;52.870;5.822;2023-05-07T06:14:13;45.08;;;22.77;;
66112;SDS011;52893;52.870;5.822;2023-05-07T06:16:40;40.13;;;20.92;;
66112;SDS011;52893;52.870;5.822;2023-05-07T06:19:08;46.45;;;24.20;;
66112;SDS011;52893;52.870;5.822;2023-05-07T06:21:36;47.00;;;25.13;;
66112;SDS011;52893;52.870;5.822;2023-05-07T06:24:03;40.17;;;20.40;;
66112;SDS011;52893;52.870;5.822;2023-05-07T06:26:30;38.95;;;20.85;;
66112;SDS011;52893;52.870;5.822;2023-05-07T06:28:59;41.60;;;22.23;;
66112;SDS011;52893;52.870;5.822;2023-05-07T06:31:29;39.97;;;19.52;;
66112;SDS011;52893;52.870;5.822;2023-05-07T06:34:01;42.38;;;21.38;;
66112;SDS011;52893;52.870;5.822;2023-05-07T06:36:33;43.50;;;23.03;;
66112;SDS011;52893;52.870;5.822;2023-05-07T06:41:33;33.05;;;18.77;;
66112;SDS011;52893;52.870;5.822;2023-05-07T06:44:08;39.38;;;20.63;;
66112;SDS011;52893;52.870;5.822;2023-05-07T06:46:39;42.55;;;22.10;;
66112;SDS011;52893;52.870;5.822;2023-05-07T06:49:06;38.95;;;22.35;;
66112;SDS011;52893;52.870;5.822;2023-05-07T06:51:34;39.28;;;22.27;;
66112;SDS011;52893;52.870;5.822;2023-05-07T06:54:03;39.20;;;21.25;;
66112;SDS011;52893;52.870;5.822;2023-05-07T06:56:32;28.40;;;15.77;;
66112;SDS011;52893;52.870;5.822;2023-05-07T06:58:59;36.63;;;20.58;;
66112;SDS011;52893;52.870;5.822;2023-05-07T07:01:33;35.13;;;19.85;;
66112;SDS011;52893;52.870;5.822;2023-05-07T07:04:02;38.60;;;22.55;;
66112;SDS011;52893;52.870;5.822;2023-05-07T07:06:30;37.30;;;20.98;;
66112;SDS011;52893;52.870;5.822;2023-05-07T07:08:59;34.67;;;18.30;;
66112;SDS011;52893;52.870;5.822;2023-05-07T07:11:27;32.90;;;19.27;;
66112;SDS011;52893;52.870;5.822;2023-05-07T07:13:55;35.95;;;20.67;;
66112;SDS011;52893;52.870;5.822;2023-05-07T07:16:22;37.63;;;23.02;;
66112;SDS011;52893;52.870;5.822;2023-05-07T07:18:52;37.70;;;21.60;;
66112;SDS011;52893;52.870;5.822;2023-05-07T07:21:19;42.05;;;22.40;;
66112;SDS011;52893;52.870;5.822;2023-05-07T07:23:47;29.13;;;16.73;;
66112;SDS011;52893;52.870;5.822;2023-05-07T07:26:14;35.80;;;20.85;;
66112;SDS011;52893;52.870;5.822;2023-05-07T07:28:42;33.35;;;18.70;;
66112;SDS011;52893;52.870;5.822;2023-05-07T07:31:11;37.45;;;20.30;;
66112;SDS011;52893;52.870;5.822;2023-05-07T07:33:38;33.88;;;19.80;;
66112;SDS011;52893;52.870;5.822;2023-05-07T07:36:07;32.38;;;19.58;;
66112;SDS011;52893;52.870;5.822;2023-05-07T07:38:35;28.75;;;18.48;;
66112;SDS011;52893;52.870;5.822;2023-05-07T07:41:03;38.03;;;20.88;;
66112;SDS011;52893;52.870;5.822;2023-05-07T07:43:30;37.70;;;21.85;;
66112;SDS011;52893;52.870;5.822;2023-05-07T07:45:58;31.85;;;19.58;;
66112;SDS011;52893;52.870;5.822;2023-05-07T07:48:26;27.90;;;16.35;;
66112;SDS011;52893;52.870;5.822;2023-05-07T07:50:54;24.95;;;13.40;;
66112;SDS011;52893;52.870;5.822;2023-05-07T07:53:23;34.25;;;19.17;;
66112;SDS011;52893;52.870;5.822;2023-05-07T07:55:51;33.03;;;18.75;;
66112;SDS011;52893;52.870;5.822;2023-05-07T07:58:21;38.78;;;20.42;;
66112;SDS011;52893;52.870;5.822;2023-05-07T08:00:51;28.88;;;17.20;;
66112;SDS011;52893;52.870;5.822;2023-05-07T08:03:18;36.13;;;19.30;;
66112;SDS011;52893;52.870;5.822;2023-05-07T08:05:50;30.73;;;18.33;;
66112;SDS011;52893;52.870;5.822;2023-05-07T08:08:17;27.15;;;16.15;;
66112;SDS011;52893;52.870;5.822;2023-05-07T08:10:47;29.83;;;19.45;;
66112;SDS011;52893;52.870;5.822;2023-05-07T08:13:21;36.25;;;19.65;;
66112;SDS011;52893;52.870;5.822;2023-05-07T08:15:48;38.28;;;17.95;;
66112;SDS011;52893;52.870;5.822;2023-05-07T08:18:15;30.58;;;17.27;;
66112;SDS011;52893;52.870;5.822;2023-05-07T08:20:44;29.02;;;17.05;;
66112;SDS011;52893;52.870;5.822;2023-05-07T08:23:16;32.08;;;18.20;;
66112;SDS011;52893;52.870;5.822;2023-05-07T08:25:45;29.90;;;18.05;;
66112;SDS011;52893;52.870;5.822;2023-05-07T08:28:15;35.22;;;18.55;;
66112;SDS011;52893;52.870;5.822;2023-05-07T08:30:42;28.35;;;17.33;;
66112;SDS011;52893;52.870;5.822;2023-05-07T08:33:09;33.10;;;18.23;;
66112;SDS011;52893;52.870;5.822;2023-05-07T08:35:36;21.92;;;14.38;;
66112;SDS011;52893;52.870;5.822;2023-05-07T08:38:06;23.73;;;14.05;;
66112;SDS011;52893;52.870;5.822;2023-05-07T08:40:34;26.88;;;18.02;;
66112;SDS011;52893;52.870;5.822;2023-05-07T08:43:07;30.80;;;19.20;;
66112;SDS011;52893;52.870;5.822;2023-05-07T08:45:37;27.48;;;17.02;;
66112;SDS011;52893;52.870;5.822;2023-05-07T08:48:08;25.27;;;16.30;;
66112;SDS011;52893;52.870;5.822;2023-05-07T08:50:41;29.70;;;18.10;;
66112;SDS011;52893;52.870;5.822;2023-05-07T08:53:10;25.95;;;17.60;;
66112;SDS011;52893;52.870;5.822;2023-05-07T08:55:38;25.95;;;16.50;;
66112;SDS011;52893;52.870;5.822;2023-05-07T08:58:05;32.70;;;20.27;;
66112;SDS011;52893;52.870;5.822;2023-05-07T09:00:38;30.40;;;19.02;;
66112;SDS011;52893;52.870;5.822;2023-05-07T09:03:06;28.27;;;18.17;;
66112;SDS011;52893;52.870;5.822;2023-05-07T09:05:35;28.65;;;17.33;;
66112;SDS011;52893;52.870;5.822;2023-05-07T09:08:04;29.90;;;17.23;;
66112;SDS011;52893;52.870;5.822;2023-05-07T09:10:33;23.13;;;14.55;;
66112;SDS011;52893;52.870;5.822;2023-05-07T09:13:02;29.73;;;19.80;;
66112;SDS011;52893;52.870;5.822;2023-05-07T09:15:30;28.17;;;18.70;;
66112;SDS011;52893;52.870;5.822;2023-05-07T09:18:00;27.63;;;18.55;;
66112;SDS011;52893;52.870;5.822;2023-05-07T09:20:30;28.38;;;17.20;;
66112;SDS011;52893;52.870;5.822;2023-05-07T09:22:58;28.90;;;17.10;;
66112;SDS011;52893;52.870;5.822;2023-05-07T09:25:29;30.20;;;18.50;;
66112;SDS011;52893;52.870;5.822;2023-05-07T09:28:00;31.38;;;18.58;;
66112;SDS011;52893;52.870;5.822;2023-05-07T09:30:28;29.38;;;18.25;;
66112;SDS011;52893;52.870;5.822;2023-05-07T09:32:57;27.75;;;19.45;;
66112;SDS011;52893;52.870;5.822;2023-05-07T09:35:28;32.05;;;19.73;;
66112;SDS011;52893;52.870;5.822;2023-05-07T09:38:01;29.17;;;18.40;;
66112;SDS011;52893;52.870;5.822;2023-05-07T09:40:32;28.00;;;19.02;;
66112;SDS011;52893;52.870;5.822;2023-05-07T09:43:10;32.25;;;18.42;;
66112;SDS011;52893;52.870;5.822;2023-05-07T09:45:45;23.08;;;15.13;;
66112;SDS011;52893;52.870;5.822;2023-05-07T09:50:49;27.25;;;18.13;;
66112;SDS011;52893;52.870;5.822;2023-05-07T09:53:23;23.38;;;16.05;;
66112;SDS011;52893;52.870;5.822;2023-05-07T09:55:52;24.77;;;17.05;;
66112;SDS011;52893;52.870;5.822;2023-05-07T09:58:20;27.55;;;17.45;;
66112;SDS011;52893;52.870;5.822;2023-05-07T10:00:49;33.47;;;16.88;;
66112;SDS011;52893;52.870;5.822;2023-05-07T10:03:17;25.08;;;16.40;;
66112;SDS011;52893;52.870;5.822;2023-05-07T10:05:54;25.13;;;16.88;;
66112;SDS011;52893;52.870;5.822;2023-05-07T10:08:22;23.60;;;16.73;;
66112;SDS011;52893;52.870;5.822;2023-05-07T10:10:53;27.95;;;17.30;;
66112;SDS011;52893;52.870;5.822;2023-05-07T10:13:23;28.42;;;15.73;;
66112;SDS011;52893;52.870;5.822;2023-05-07T10:15:55;23.35;;;16.02;;
66112;SDS011;52893;52.870;5.822;2023-05-07T10:18:26;24.75;;;16.08;;
66112;SDS011;52893;52.870;5.822;2023-05-07T10:21:01;25.10;;;15.07;;
66112;SDS011;52893;52.870;5.822;2023-05-07T10:26:00;23.35;;;15.63;;
66112;SDS011;52893;52.870;5.822;2023-05-07T10:28:32;22.90;;;16.30;;
66112;SDS011;52893;52.870;5.822;2023-05-07T10:33:46;27.35;;;17.25;;
66112;SDS011;52893;52.870;5.822;2023-05-07T10:36:15;25.52;;;16.77;;
66112;SDS011;52893;52.870;5.822;2023-05-07T10:38:43;25.20;;;16.10;;
66112;SDS011;52893;52.870;5.822;2023-05-07T10:41:12;22.35;;;15.88;;
66112;SDS011;52893;52.870;5.822;2023-05-07T10:43:43;26.70;;;18.20;;
66112;SDS011;52893;52.870;5.822;2023-05-07T10:46:19;22.77;;;15.52;;
66112;SDS011;52893;52.870;5.822;2023-05-07T10:49:08;24.38;;;17.02;;
66112;SDS011;52893;52.870;5.822;2023-05-07T10:51:45;25.95;;;15.63;;
66112;SDS011;52893;52.870;5.822;2023-05-07T10:54:22;17.67;;;12.20;;
66112;SDS011;52893;52.870;5.822;2023-05-07T11:03:13;25.05;;;15.45;;
66112;SDS011;52893;52.870;5.822;2023-05-07T11:11:50;27.65;;;15.77;;
66112;SDS011;52893;52.870;5.822;2023-05-07T11:14:44;27.08;;;15.77;;
66112;SDS011;52893;52.870;5.822;2023-05-07T11:17:19;25.92;;;15.80;;
66112;SDS011;52893;52.870;5.822;2023-05-07T11:19:54;24.90;;;17.45;;
66112;SDS011;52893;52.870;5.822;2023-05-07T11:22:47;26.57;;;17.70;;
66112;SDS011;52893;52.870;5.822;2023-05-07T11:25:30;27.20;;;16.15;;
66112;SDS011;52893;52.870;5.822;2023-05-07T11:28:05;25.92;;;15.13;;
66112;SDS011;52893;52.870;5.822;2023-05-07T11:30:36;19.42;;;13.90;;
66112;SDS011;52893;52.870;5.822;2023-05-07T11:33:06;25.42;;;16.95;;
66112;SDS011;52893;52.870;5.822;2023-05-07T11:35:33;24.77;;;18.20;;
66112;SDS011;52893;52.870;5.822;2023-05-07T11:38:03;24.58;;;17.58;;
66112;SDS011;52893;52.870;5.822;2023-05-07T11:40:33;24.33;;;16.90;;
66112;SDS011;52893;52.870;5.822;2023-05-07T11:43:08;23.08;;;15.13;;
66112;SDS011;52893;52.870;5.822;2023-05-07T11:45:37;18.98;;;11.82;;
66112;SDS011;52893;52.870;5.822;2023-05-07T11:48:05;29.17;;;17.10;;
66112;SDS011;52893;52.870;5.822;2023-05-07T11:50:32;28.75;;;16.77;;
66112;SDS011;52893;52.870;5.822;2023-05-07T11:52:59;29.33;;;18.23;;
66112;SDS011;52893;52.870;5.822;2023-05-07T11:55:28;26.45;;;17.90;;
66112;SDS011;52893;52.870;5.822;2023-05-07T11:57:55;25.27;;;16.52;;
66112;SDS011;52893;52.870;5.822;2023-05-07T12:00:22;25.80;;;18.20;;
66112;SDS011;52893;52.870;5.822;2023-05-07T12:02:49;26.55;;;18.10;;
66112;SDS011;52893;52.870;5.822;2023-05-07T12:05:16;26.17;;;16.05;;
66112;SDS011;52893;52.870;5.822;2023-05-07T12:07:44;25.52;;;17.80;;
66112;SDS011;52893;52.870;5.822;2023-05-07T12:10:11;21.83;;;15.65;;
66112;SDS011;52893;52.870;5.822;2023-05-07T12:12:40;28.70;;;15.98;;
66112;SDS011;52893;52.870;5.822;2023-05-07T12:15:08;27.20;;;16.35;;
66112;SDS011;52893;52.870;5.822;2023-05-07T12:17:36;27.77;;;16.58;;
66112;SDS011;52893;52.870;5.822;2023-05-07T12:20:04;26.75;;;15.02;;
66112;SDS011;52893;52.870;5.822;2023-05-07T12:22:33;18.92;;;13.25;;
66112;SDS011;52893;52.870;5.822;2023-05-07T12:25:00;23.40;;;16.23;;
66112;SDS011;52893;52.870;5.822;2023-05-07T12:27:28;22.98;;;16.77;;
66112;SDS011;52893;52.870;5.822;2023-05-07T12:29:58;23.08;;;16.25;;
66112;SDS011;52893;52.870;5.822;2023-05-07T12:32:25;19.35;;;13.77;;
66112;SDS011;52893;52.870;5.822;2023-05-07T12:34:52;21.50;;;15.75;;
66112;SDS011;52893;52.870;5.822;2023-05-07T12:37:23;21.83;;;14.80;;
66112;SDS011;52893;52.870;5.822;2023-05-07T12:40:03;20.70;;;15.82;;
66112;SDS011;52893;52.870;5.822;2023-05-07T12:42:32;21.98;;;13.05;;
66112;SDS011;52893;52.870;5.822;2023-05-07T12:45:08;24.10;;;14.68;;
66112;SDS011;52893;52.870;5.822;2023-05-07T12:47:36;19.50;;;12.82;;
66112;SDS011;52893;52.870;5.822;2023-05-07T12:50:05;20.05;;;14.63;;
66112;SDS011;52893;52.870;5.822;2023-05-07T12:52:33;20.67;;;12.73;;
66112;SDS011;52893;52.870;5.822;2023-05-07T12:55:04;23.30;;;14.18;;
66112;SDS011;52893;52.870;5.822;2023-05-07T12:57:37;24.52;;;13.63;;
66112;SDS011;52893;52.870;5.822;2023-05-07T13:00:05;22.17;;;13.60;;
66112;SDS011;52893;52.870;5.822;2023-05-07T13:02:37;19.67;;;13.13;;
66112;SDS011;52893;52.870;5.822;2023-05-07T13:05:05;20.13;;;14.50;;
66112;SDS011;52893;52.870;5.822;2023-05-07T13:07:33;20.02;;;13.18;;
66112;SDS011;52893;52.870;5.822;2023-05-07T13:10:01;19.67;;;13.88;;
66112;SDS011;52893;52.870;5.822;2023-05-07T13:12:28;18.52;;;13.27;;
66112;SDS011;52893;52.870;5.822;2023-05-07T13:14:55;18.65;;;13.30;;
66112;SDS011;52893;52.870;5.822;2023-05-07T13:17:22;18.77;;;12.50;;
66112;SDS011;52893;52.870;5.822;2023-05-07T13:19:51;19.33;;;12.95;;
66112;SDS011;52893;52.870;5.822;2023-05-07T13:22:18;19.13;;;13.25;;
66112;SDS011;52893;52.870;5.822;2023-05-07T13:24:45;17.98;;;11.90;;
66112;SDS011;52893;52.870;5.822;2023-05-07T13:27:12;17.67;;;12.25;;
66112;SDS011;52893;52.870;5.822;2023-05-07T13:29:40;19.23;;;12.02;;
66112;SDS011;52893;52.870;5.822;2023-05-07T13:32:07;15.70;;;11.30;;
66112;SDS011;52893;52.870;5.822;2023-05-07T13:34:34;17.55;;;10.73;;
66112;SDS011;52893;52.870;5.822;2023-05-07T13:37:04;14.60;;;10.57;;
66112;SDS011;52893;52.870;5.822;2023-05-07T13:39:33;16.15;;;10.70;;
66112;SDS011;52893;52.870;5.822;2023-05-07T13:42:00;17.60;;;10.68;;
66112;SDS011;52893;52.870;5.822;2023-05-07T13:44:27;15.13;;;11.63;;
66112;SDS011;52893;52.870;5.822;2023-05-07T13:46:55;17.60;;;12.07;;
66112;SDS011;52893;52.870;5.822;2023-05-07T13:49:22;16.27;;;10.68;;
66112;SDS011;52893;52.870;5.822;2023-05-07T13:51:49;16.48;;;11.00;;
66112;SDS011;52893;52.870;5.822;2023-05-07T13:54:18;22.45;;;12.75;;
66112;SDS011;52893;52.870;5.822;2023-05-07T13:56:45;18.23;;;11.18;;
66112;SDS011;52893;52.870;5.822;2023-05-07T13:59:12;13.60;;;9.75;;
66112;SDS011;52893;52.870;5.822;2023-05-07T14:01:40;16.08;;;10.98;;
66112;SDS011;52893;52.870;5.822;2023-05-07T14:04:07;16.80;;;12.73;;
66112;SDS011;52893;52.870;5.822;2023-05-07T14:06:34;17.92;;;11.82;;
66112;SDS011;52893;52.870;5.822;2023-05-07T14:09:02;17.42;;;12.43;;
66112;SDS011;52893;52.870;5.822;2023-05-07T14:11:31;16.58;;;12.65;;
66112;SDS011;52893;52.870;5.822;2023-05-07T14:13:58;14.32;;;10.25;;
66112;SDS011;52893;52.870;5.822;2023-05-07T14:16:25;15.65;;;10.25;;
66112;SDS011;52893;52.870;5.822;2023-05-07T14:18:52;18.73;;;11.43;;
66112;SDS011;52893;52.870;5.822;2023-05-07T14:21:20;17.27;;;10.90;;
66112;SDS011;52893;52.870;5.822;2023-05-07T14:23:47;18.80;;;11.48;;
66112;SDS011;52893;52.870;5.822;2023-05-07T14:26:15;18.58;;;10.35;;
66112;SDS011;52893;52.870;5.822;2023-05-07T14:28:43;15.35;;;12.30;;
66112;SDS011;52893;52.870;5.822;2023-05-07T14:31:11;20.75;;;11.63;;
66112;SDS011;52893;52.870;5.822;2023-05-07T14:33:39;14.15;;;11.80;;
66112;SDS011;52893;52.870;5.822;2023-05-07T14:36:06;18.25;;;12.63;;
66112;SDS011;52893;52.870;5.822;2023-05-07T14:38:33;16.27;;;12.23;;
66112;SDS011;52893;52.870;5.822;2023-05-07T14:41:01;16.10;;;11.73;;
66112;SDS011;52893;52.870;5.822;2023-05-07T14:43:28;18.40;;;11.88;;
66112;SDS011;52893;52.870;5.822;2023-05-07T14:45:56;16.52;;;11.40;;
66112;SDS011;52893;52.870;5.822;2023-05-07T14:48:24;18.77;;;12.57;;
66112;SDS011;52893;52.870;5.822;2023-05-07T14:50:51;15.15;;;11.23;;
66112;SDS011;52893;52.870;5.822;2023-05-07T14:53:18;15.13;;;11.93;;
66112;SDS011;52893;52.870;5.822;2023-05-07T14:55:46;14.38;;;10.85;;
66112;SDS011;52893;52.870;5.822;2023-05-07T14:58:14;16.23;;;11.63;;